Chase City, Virginia
Current Conditions -  °F | °C
As of 11:15 AM on Monday 26 Jan 2015 (Local Time) from KCXE Reporting Station
Overcast Overcast  
Wind Chill: 41°   Ceiling: 400
Heat Index: 44°   Visibility: 7mi
Dew Point: 44°   Wind: 5mph
Humidity: 100%   Direction: 30°NNE
Pressure: 29.66"   Gusts: NA
Location:  36.8°N, 78.46°W
Report Text: KCXE 261615Z AUTO 03004KT 7SM OVC004 07/07 A2966 RMK AO1 T00660066
Loading
Personal Weather Stations






























Interactive Weather Map New forecast layout! Learn more

10-Day Weather Forecast

Advertisements
Track Severe Weather on mobile